Flight Track Log - Related Links

Times and Time Zones

All times are in EDT time to prevent confusion due to time zone crossing. See the UAL86 flight status page for this flight to view local times or setup timezone preferences in your user account.


Time Position Orientation Groundspeed Altitude Reporting Facility
EDT Latitude Longitude Course Direction KTS MPH feet Rate Location/Type
Mon 11:09:37 AM 40.7290 -74.1350 205° Southwest 184 212 1,800  Level FlightAware ADS-B
Mon 11:09:52 AM 40.7390 -74.1320 13° North 195 224 2,000 1,043 Climbing FlightAware ADS-B
Mon 11:10:00 AM 40.7504 -74.1356 347° North 203 234 2,200 1,500 Climbing FlightAware ADS-B
Mon 11:10:04 AM 40.7533 -74.1378 330° Northwest 203 234 2,300 1,500 Climbing FlightAware ADS-B
Mon 11:10:08 AM 40.7564 -74.1407 325° Northwest 206 237 2,400 1,500 Climbing FlightAware ADS-B
Mon 11:10:20 AM 40.7653 -74.1506 320° Northwest 203 234 2,700 1,778 Climbing FlightAware ADS-B
Mon 11:10:35 AM 40.7759 -74.1634 318° Northwest 205 236 3,200 1,161 Climbing FlightAware ADS-B
Mon 11:10:51 AM 40.7871 -74.1770 317° Northwest 222 255 3,300 774 Climbing FlightAware ADS-B
Mon 11:11:06 AM 40.7993 -74.1918 317° Northwest 239 275 3,600 1,000 Climbing FlightAware ADS-B
Mon 11:11:21 AM 40.8126 -74.2075 318° Northwest 252 290 3,800 1,161 Climbing FlightAware ADS-B
Mon 11:11:37 AM 40.8262 -74.2232 319° Northwest 266 306 4,200 1,800 Climbing FlightAware ADS-B
Mon 11:11:51 AM 40.8400 -74.2388 319° Northwest 265 305 4,700 2,000 Climbing FlightAware ADS-B
Mon 11:11:52 AM 40.8406 -74.2394 323° Northwest 270 311 4,700 2,250 Level FlightAware ADS-B
Mon 11:12:07 AM 40.8552 -74.2559 319° Northwest 271 312 5,300 2,400 Climbing FlightAware ADS-B
Mon 11:12:22 AM 40.8696 -74.2725 319° Northwest 275 316 5,900 2,000 Climbing FlightAware ADS-B
Mon 11:12:52 AM 40.8940 -74.3000 320° Northwest 278 320 6,800 1,867 Climbing FlightAware ADS-B
Mon 11:13:07 AM 40.9110 -74.3160 325° Northwest 286 329 7,300 2,571 Climbing FlightAware ADS-B
Mon 11:13:13 AM 40.9233 -74.3226 338° Northwest 277 319 7,700 2,195 Climbing FlightAware ADS-B
Mon 11:13:48 AM 40.9672 -74.3456 338° Northwest 295 339 8,800 1,915 Climbing FlightAware ADS-B
Mon 11:14:00 AM 40.9828 -74.3503 347° North 299 344 9,200 1,875 Climbing FlightAware ADS-B
Mon 11:14:04 AM 40.9884 -74.3512 353° North 298 343 9,300 1,500 Climbing FlightAware ADS-B
Mon 11:14:08 AM 40.9941 -74.3518 355° North 299 344 9,400 1,714 Climbing FlightAware ADS-B
Mon 11:14:11 AM 40.9984 -74.3520 358° North 299 344 9,500 2,250 Climbing FlightAware ADS-B
Mon 11:14:16 AM 41.0053 -74.3522 359° North 299 344 9,700 2,400 Climbing FlightAware ADS-B
Mon 11:14:21 AM 41.0125 -74.3521 North 300 345 9,900 1,500 Climbing FlightAware ADS-B
Mon 11:14:32 AM 41.0278 -74.3524 359° North 299 344 10,100 800 Climbing FlightAware ADS-B
Mon 11:14:36 AM 41.0333 -74.3524 360° North 305 351 10,100 706 Level FlightAware ADS-B
Mon 11:15:06 AM 41.0790 -74.3527 360° North 327 376 10,500 789 Climbing FlightAware ADS-B
Mon 11:15:52 AM 41.1534 -74.3535 360° North 372 428 11,100 474 Climbing FlightAware ADS-B
Mon 11:16:22 AM 41.1960 -74.3550 358° North 368 423 11,100 1,612 Level FlightAware ADS-B
Mon 11:16:59 AM 41.2727 -74.3553 360° North 388 447 12,900 2,462 Climbing FlightAware ADS-B
Mon 11:17:40 AM 41.3477 -74.3563 359° North 393 452 14,300 1,792 Climbing FlightAware ADS-B
Mon 11:18:16 AM 41.4097 -74.3820 343° North 400 460 15,200 1,556 Climbing FlightAware ADS-B
Mon 11:18:34 AM 41.4315 -74.4143 312° West 402 463 15,700 1,612 Climbing FlightAware ADS-B
Mon 11:19:23 AM 41.4785 -74.5220 300° West 409 471 17,000 1,500 Climbing FlightAware ADS-B
Mon 11:19:54 AM 41.5070 -74.5897 299° West 412 474 17,700 1,429 Climbing FlightAware ADS-B
Mon 11:20:26 AM 41.5373 -74.6604 300° West 417 480 18,500 1,355 Climbing FlightAware ADS-B
Mon 11:20:56 AM 41.5669 -74.7286 300° West 425 489 19,100 1,125 Climbing FlightAware ADS-B
Mon 11:21:14 AM 41.5858 -74.7698 302° West 427 491 19,400 1,180 Climbing FlightAware ADS-B
Mon 11:21:57 AM 41.6410 -74.8470 314° West 428 493 20,300 1,227 Climbing FlightAware ADS-B
Mon 11:22:42 AM 41.7070 -74.9200 320° Northwest 430 495 21,200 1,200 Climbing FlightAware ADS-B
Mon 11:23:22 AM 41.7710 -74.9900 321° Northwest 436 502 22,000 1,200 Climbing FlightAware ADS-B
Mon 11:24:02 AM 41.8330 -75.0590 320° Northwest 440 506 22,800 1,200 Climbing FlightAware ADS-B
Mon 11:24:47 AM 41.9070 -75.1410 320° Northwest 444 511 23,700 1,129 Climbing FlightAware ADS-B
Mon 11:25:27 AM 41.9660 -75.2070 320° Northwest 446 513 24,400 988 Climbing FlightAware ADS-B
Mon 11:26:12 AM 42.0340 -75.2830 320° Northwest 449 517 25,100 1,020 Climbing FlightAware ADS-B
Mon 11:27:07 AM 42.1350 -75.3740 326° Northwest 452 520 26,100 1,011 Climbing FlightAware ADS-B
Mon 11:27:47 AM 42.2030 -75.4280 330° Northwest 446 513 26,700 975 Climbing FlightAware ADS-B
Mon 11:28:27 AM 42.2820 -75.4910 329° Northwest 456 525 27,400 847 Climbing FlightAware ADS-B
Mon 11:29:12 AM 42.3540 -75.5480 330° Northwest 458 527 27,900 675 Climbing FlightAware ADS-B
Mon 11:29:47 AM 42.4190 -75.6010 329° Northwest 465 535 28,300 675 Climbing FlightAware ADS-B
Mon 11:30:32 AM 42.5030 -75.6680 330° Northwest 470 541 28,800 706 Climbing FlightAware ADS-B
Mon 11:31:12 AM 42.5770 -75.7280 329° Northwest 472 543 29,300 776 Climbing FlightAware ADS-B
Mon 11:31:57 AM 42.6640 -75.7980 329° Northwest 474 545 29,900 467 Climbing FlightAware ADS-B
Mon 11:32:42 AM 42.7460 -75.8650 329° Northwest 480 552 30,000 71 Climbing FlightAware ADS-B
Mon 11:33:22 AM 42.8260 -75.9300 329° Northwest 480 552 30,000  Level FlightAware ADS-B
Mon 11:34:07 AM 42.9090 -75.9980 329° Northwest 481 554 30,000  Level FlightAware ADS-B
Mon 11:34:42 AM 42.9770 -76.0540 329° Northwest 482 555 30,000  Level FlightAware ADS-B
Mon 11:35:27 AM 43.0650 -76.1260 329° Northwest 482 555 30,000  Level FlightAware ADS-B
Mon 11:36:12 AM 43.1490 -76.1860 332° Northwest 483 556 30,000 360 Level FlightAware ADS-B
Mon 11:37:07 AM 43.2740 -76.1930 358° North 486 559 30,600 632 Climbing FlightAware ADS-B
Mon 11:37:47 AM 43.3650 -76.1830 North 481 554 31,000 282 Climbing FlightAware ADS-B
Mon 11:38:32 AM 43.4650 -76.1710 North 482 555 31,000  Level FlightAware ADS-B
Mon 11:39:17 AM 43.5630 -76.1610 North 482 555 31,000  Level FlightAware ADS-B
Mon 11:39:57 AM 43.6540 -76.1510 North 482 555 31,000  Level FlightAware ADS-B
Mon 11:40:37 AM 43.7430 -76.1410 North 482 555 31,000  Level FlightAware ADS-B
Mon 11:41:22 AM 43.8410 -76.1300 North 482 555 31,000  Level FlightAware ADS-B
Mon 11:42:02 AM 43.9300 -76.1210 North 482 555 31,000  Level FlightAware ADS-B
Mon 11:42:42 AM 44.0210 -76.1100 North 482 555 31,000  Level FlightAware ADS-B
Mon 11:43:27 AM 44.1210 -76.0990 North 481 554 31,000  Level FlightAware ADS-B
Mon 11:44:07 AM 44.2100 -76.0900 North 482 555 31,000  Level FlightAware ADS-B
Mon 11:44:52 AM 44.3080 -76.0780 North 482 555 31,000  Level FlightAware ADS-B
Mon 11:45:32 AM 44.3940 -76.0690 North 481 554 31,000  Level FlightAware ADS-B
Mon 11:46:17 AM 44.5070 -76.0560 North 479 551 31,000  Level FlightAware ADS-B
Mon 11:46:57 AM 44.5960 -76.0460 North 477 549 31,000  Level FlightAware ADS-B
Mon 11:47:42 AM 44.6930 -76.0350 North 477 549 31,000  Level FlightAware ADS-B
Mon 11:48:22 AM 44.7780 -76.0250 North 478 550 31,000  Level FlightAware ADS-B
Mon 11:49:02 AM 44.8690 -76.0150 North 477 549 31,000  Level FlightAware ADS-B
Mon 11:49:47 AM 44.9700 -76.0040 North 476 548 31,000  Level FlightAware ADS-B
Mon 11:50:27 AM 45.0570 -76.0100 357° North 474 545 31,000  Level FlightAware ADS-B
Mon 11:51:12 AM 45.1540 -76.0280 353° North 476 548 31,000  Level FlightAware ADS-B
Mon 11:51:52 AM 45.2370 -76.0430 353° North 477 549 31,000  Level FlightAware ADS-B
Mon 11:52:37 AM 45.3280 -76.0600 353° North 475 547 31,000  Level FlightAware ADS-B
Mon 11:53:12 AM 45.3990 -76.0730 353° North 474 545 31,000  Level FlightAware ADS-B
Mon 11:53:57 AM 45.5120 -76.0940 353° North 472 543 31,000  Level FlightAware ADS-B
Mon 11:54:42 AM 45.6120 -76.1130 352° North 473 544 31,000  Level FlightAware ADS-B
Mon 11:55:22 AM 45.6820 -76.1260 353° North 473 544 31,000  Level FlightAware ADS-B
Mon 11:55:57 AM 45.7640 -76.1410 353° North 475 547 31,000  Level FlightAware ADS-B
Mon 11:56:47 AM 45.8800 -76.1620 353° North 474 545 31,000  Level FlightAware ADS-B
Mon 11:57:32 AM 45.9800 -76.1810 352° North 474 545 31,000  Level FlightAware ADS-B
Mon 11:58:12 AM 46.0680 -76.1980 352° North 474 545 31,000  Level FlightAware ADS-B
Mon 11:58:52 AM 46.1550 -76.2140 353° North 473 544 31,000  Level FlightAware ADS-B
Mon 11:59:32 AM 46.2370 -76.2300 352° North 474 545 31,000  Level FlightAware ADS-B
Mon 12:00:07 PM 46.3180 -76.2450 353° North 476 548 31,000  Level FlightAware ADS-B
Mon 12:00:57 PM 46.4210 -76.2650 352° North 477 549 31,000  Level FlightAware ADS-B
Mon 12:01:52 PM 46.5470 -76.2890 353° North 477 549 31,000  Level FlightAware ADS-B
Mon 12:02:37 PM 46.6370 -76.3070 352° North 477 549 31,000  Level FlightAware ADS-B
Mon 12:03:17 PM 46.7120 -76.3220 352° North 477 549 31,000  Level FlightAware ADS-B
Mon 12:03:57 PM 46.7860 -76.3380 352° North 477 549 31,000  Level FlightAware ADS-B
Mon 12:04:37 PM 46.8600 -76.3530 352° North 477 549 31,000  Level FlightAware ADS-B
Mon 12:05:17 PM 46.9350 -76.3680 352° North 477 549 31,000  Level FlightAware ADS-B
Mon 12:06:07 PM 47.0270 -76.3870 352° North 477 549 31,000  Level FlightAware ADS-B
Mon 12:06:47 PM 47.1020 -76.4030 352° North 477 549 31,000  Level FlightAware ADS-B
Mon 12:07:27 PM 47.1760 -76.4180 352° North 477 549 31,000  Level FlightAware ADS-B
Mon 12:08:07 PM 47.2500 -76.4330 352° North 477 549 31,000  Level FlightAware ADS-B
Mon 12:08:47 PM 47.3250 -76.4490 352° North 477 549 31,000  Level FlightAware ADS-B
Mon 12:09:37 PM 47.4170 -76.4680 352° North 477 549 31,000  Level FlightAware ADS-B
Mon 12:10:17 PM 47.4920 -76.4840 352° North 477 549 31,000  Level FlightAware ADS-B
Mon 12:10:57 PM 47.5660 -76.4990 352° North 477 549 31,000  Level FlightAware ADS-B
Mon 12:11:37 PM 47.6400 -76.5140 352° North 477 549 31,000  Level FlightAware ADS-B
Mon 12:12:50 PM 47.9667 -76.5667 352° North 470 541 31,000  Level Montreal Center
Mon 12:13:50 PM 48.1000 -76.6000 351° North 470 541 31,000  Level Montreal Center
Mon 12:14:50 PM 48.2500 -76.6167 356° North 470 541 31,000  Level Montreal Center
Mon 12:16:00 PM 48.4019 -76.6489 352° North  Level FlightAware Approximate
Mon 12:18:00 PM 48.4726 -76.6676 352° North  Level FlightAware Approximate
Mon 12:19:50 PM 48.9000 -76.7667 352° North 470 541 31,000  Level Montreal Center
Mon 12:20:50 PM 49.0167 -76.7833 355° North 480 552 31,000  Level Montreal Center
Mon 12:21:50 PM 49.1500 -76.8167 351° North 470 541 31,000  Level Montreal Center
Mon 12:22:50 PM 49.2833 -76.8500 351° North 480 552 31,000  Level Montreal Center
Mon 12:23:00 PM 49.3128 -76.8462 352° North  Level FlightAware Approximate
Mon 12:23:50 PM 49.4000 -76.8667 355° North 450 518 31,000  Level Montreal Center
Mon 12:24:00 PM 49.4429 -76.8750 352° North  Level FlightAware Approximate
Mon 12:25:00 PM 49.5730 -76.9039 352° North  Level FlightAware Approximate
Mon 12:25:00 PM 49.5518 -76.9001 352° North  Level FlightAware Approximate
Mon 12:25:50 PM 49.6667 -76.9333 352° North 450 518 31,000  Level Montreal Center
Mon 12:26:50 PM 49.8000 -76.9500 355° North 470 541 31,000  Level Montreal Center
Mon 12:27:50 PM 49.9333 -76.9833 351° North 470 541 31,000  Level Montreal Center
Mon 12:28:50 PM 50.0667 -77.0167 351° North 470 541 31,000  Level Montreal Center
Mon 12:29:50 PM 50.1833 -77.0500 350° North 480 552 31,000  Level Montreal Center
Mon 12:30:50 PM 50.3167 -77.0667 355° North 480 552 31,000  Level Montreal Center
Mon 12:32:00 PM 50.4689 -77.0907 354° North  Level FlightAware Approximate
Mon 12:32:50 PM 50.6000 -77.1000 354° North 480 552 31,000  Level Montreal Center
Mon 12:33:50 PM 50.7333 -77.1333 351° North 480 552 31,000  Level Montreal Center
Mon 12:35:00 PM 50.8856 -77.1575 354° North  Level FlightAware Approximate
Mon 12:35:50 PM 51.0000 -77.2000 354° North 480 552 31,000  Level Montreal Center
Mon 12:37:00 PM 51.1539 -77.2007 353° North  Level FlightAware Approximate
Mon 12:37:50 PM 51.2667 -77.2333 353° North 480 552 31,000  Level Montreal Center
Mon 12:38:50 PM 51.3833 -77.2667 350° North 470 541 31,000  Level Montreal Center
Mon 12:39:50 PM 51.5167 -77.2833 356° North 470 541 31,000  Level Montreal Center
Mon 12:40:50 PM 51.6500 -77.3167 351° North 470 541 31,000  Level Montreal Center
Mon 12:41:50 PM 51.7833 -77.3333 356° North 470 541 31,000  Level Montreal Center
Mon 12:42:50 PM 51.9167 -77.3500 356° North 470 541 31,000  Level Montreal Center
Mon 12:43:50 PM 52.0333 -77.3833 350° North 470 541 31,000  Level Montreal Center
Mon 12:44:50 PM 52.1667 -77.4167 351° North 470 541 31,000  Level Montreal Center
Mon 12:46:00 PM 52.3186 -77.4460 353° North  Level FlightAware Approximate
Mon 12:52:50 PM 53.2167 -77.6167 353° North 470 541 31,000  Level Montreal Center
Mon 12:53:00 PM 53.2302 -77.6265 353° North  Level FlightAware Approximate
Mon 12:54:00 PM 53.3604 -77.6529 353° North  Level FlightAware Approximate
Mon 12:54:00 PM 53.3633 -77.6898 343° North  Level Estimated
Mon 12:55:00 PM 53.4906 -77.6795 353° North  Level FlightAware Approximate
Mon 12:55:50 PM 53.6000 -77.7000 343° North 470 541 31,000  Level Montreal Center
Mon 12:56:00 PM 53.6208 -77.7062 353° North  Level FlightAware Approximate
Mon 12:57:00 PM 53.7509 -77.7331 353° North  Level FlightAware Approximate
Mon 12:57:00 PM 53.7466 -77.7740 343° North  Level Estimated
Mon 12:58:00 PM 53.8811 -77.7601 353° North  Level FlightAware Approximate
Mon 12:58:50 PM 54.0000 -77.8000 343° North 460 529 31,000  Level Montreal Center
Mon 12:59:50 PM 54.1167 -77.8000 360° North 470 541 31,000  Level Montreal Center
Mon 01:00:50 PM 54.2500 -77.8333 352° North 460 529 31,000  Level Montreal Center
Mon 01:01:00 PM 54.2422 -78.1392 343° North  Level Estimated
Mon 01:01:50 PM 54.3833 -77.8667 352° North 460 529 31,000  Level Montreal Center
Mon 01:03:00 PM 54.5298 -77.9427 343° North  Level Estimated
Mon 01:04:00 PM 54.6251 -78.2294 343° North  Level Estimated
Mon 01:05:50 PM 54.8833 -77.9833 343° North 470 541 31,000  Level Montreal Center
Mon 01:07:50 PM 55.1667 -77.9667 North 480 552 31,000  Level Montreal Center
Mon 01:08:50 PM 55.3000 -77.9500 North 490 564 31,000  Level Montreal Center
Mon 01:10:00 PM 55.4077 -78.4105 343° North  Level Estimated
Mon 01:10:00 PM 55.4539 -77.9181 North  Level FlightAware Approximate
Mon 01:11:00 PM 55.5330 -78.4790 343° North  Level Estimated
Mon 01:11:50 PM 55.7167 -77.8667 North 490 564 31,000  Level Montreal Center
Mon 01:13:00 PM 55.8708 -77.8389 North  Level FlightAware Approximate
Mon 01:13:50 PM 55.9667 -77.8333 North 490 564 31,000  Level Montreal Center
Mon 01:15:00 PM 56.1208 -77.8048 North  Level FlightAware Approximate
Mon 01:16:50 PM 56.3833 -77.7500 North 490 564 31,000  Level Montreal Center
Mon 01:17:00 PM 56.3784 -77.7432 North  Level FlightAware Approximate
Mon 01:18:00 PM 56.5318 -77.8305 343° North  Level Estimated
Mon 01:18:58 PM 56.6500 -77.5667 343° North 500 575 31,000  Level Edmonton Center
Mon 01:19:58 PM 56.7833 -77.5333 North 500 575 31,000  Level Edmonton Center
Mon 01:20:50 PM 56.9500 -77.6500 339° North 490 564 31,000  Level Montreal Center
Mon 01:21:50 PM 57.0833 -77.6333 North 490 564 31,000  Level Montreal Center
Mon 01:22:00 PM 57.0454 -77.6284 North  Level FlightAware Approximate
Mon 01:22:50 PM 57.2167 -77.6000 North 490 564 31,000  Level Montreal Center
Mon 01:23:50 PM 57.3500 -77.5833 North 490 564 31,000  Level Montreal Center
Mon 01:25:50 PM 57.6167 -77.5333 North 490 564 31,000  Level Montreal Center
Mon 01:26:50 PM 57.7500 -77.5000 North 490 564 31,000  Level Montreal Center
Mon 01:27:58 PM 57.8667 -77.3333 37° Northeast 500 575 31,000  Level Edmonton Center
Mon 01:29:50 PM 58.1833 -77.4000 354° North 500 575 31,000  Level Montreal Center
Mon 01:32:58 PM 58.5500 -77.1667 18° North 500 575 31,000  Level Edmonton Center
Mon 01:34:50 PM 58.8667 -77.2667 351° North 500 575 31,000  Level Montreal Center
Mon 01:35:50 PM 59.0000 -77.2333 North 500 575 31,000  Level Montreal Center
Mon 01:36:50 PM 59.1333 -77.2000 North 500 575 31,000  Level Montreal Center
Mon 01:38:50 PM 59.4167 -77.1500 North 500 575 31,000  Level Montreal Center
Mon 01:39:50 PM 59.5500 -77.1167 North 500 575 31,000  Level Montreal Center
Mon 01:40:50 PM 59.7000 -77.0833 North 500 575 31,000  Level Montreal Center
Mon 01:42:50 PM 59.9833 -77.0333 North 500 575 31,000  Level Montreal Center
Mon 01:43:50 PM 60.1167 -77.0000 North 490 564 31,000  Level Montreal Center
Mon 01:44:50 PM 60.2500 -76.9667 North 490 564 31,000  Level Montreal Center
Mon 01:45:58 PM 60.3667 -76.7667 40° Northeast 500 575 31,000  Level Edmonton Center
Mon 01:46:50 PM 60.5167 -76.9167 334° Northwest 490 564 31,000  Level Montreal Center
Mon 01:47:50 PM 60.6500 -76.8833 North 490 564 31,000  Level Montreal Center
Mon 01:48:50 PM 60.8000 -76.8833 360° North 490 564 31,000  Level Montreal Center
Mon 01:50:50 PM 61.0667 -76.8167 North 480 552 31,000  Level Montreal Center
Mon 01:52:58 PM 61.3000 -76.6000 24° Northeast 490 564 31,000  Level Edmonton Center
Mon 01:53:58 PM 61.4500 -76.5833 North 490 564 31,000  Level Edmonton Center
Mon 01:55:50 PM 61.7333 -76.7000 349° North 490 564 31,000  Level Montreal Center
Mon 01:57:50 PM 62.0167 -76.6333 North 480 552 31,000  Level Montreal Center
Mon 01:58:50 PM 62.1500 -76.6333 360° North 480 552 31,000  Level Montreal Center
Mon 01:59:50 PM 62.2833 -76.6000 North 480 552 31,000  Level Montreal Center
Mon 02:00:50 PM 62.4167 -76.5667 North 480 552 31,000  Level Montreal Center
Mon 02:01:50 PM 62.5500 -76.5333 North 480 552 31,000  Level Montreal Center
Mon 02:02:50 PM 62.6833 -76.5000 North 480 552 31,000  Level Montreal Center
Mon 02:03:50 PM 62.8167 -76.5000 360° North 480 552 31,000  Level Montreal Center
Mon 02:05:50 PM 63.0833 -76.4333 North 480 552 31,000  Level Montreal Center
Mon 02:06:50 PM 63.2167 -76.4000 North 480 552 31,000  Level Montreal Center
Mon 02:07:50 PM 63.3333 -76.3667 North 480 552 31,000  Level Montreal Center
Mon 02:08:50 PM 63.4833 -76.3667 360° North 480 552 31,000  Level Montreal Center
Mon 02:09:50 PM 63.6000 -76.3333 North 470 541 31,000  Level Montreal Center
Mon 02:10:50 PM 63.7333 -76.3000 North 470 541 31,000  Level Montreal Center
Mon 02:11:50 PM 63.8667 -76.2500 North 470 541 31,000  Level Montreal Center
Mon 02:12:50 PM 64.0000 -76.2667 357° North 470 541 31,000  Level Montreal Center
Mon 02:13:59 PM 64.1000 -76.0167 47° Northeast 470 541 31,000  Level Edmonton Center
Mon 02:14:59 PM 64.2333 -76.0167 360° North 470 541 31,000  Level Edmonton Center
Mon 02:16:50 PM 64.5167 -76.1000 353° North 470 541 31,000  Level Montreal Center
Mon 02:17:59 PM 64.6333 -75.9000 36° Northeast 470 541 31,000  Level Edmonton Center
Mon 02:19:59 PM 64.8833 -75.8333 North 470 541 31,000  Level Edmonton Center
Mon 02:21:59 PM 65.1500 -75.8167 North 470 541 31,000  Level Edmonton Center
Mon 02:22:59 PM 65.2833 -75.8667 351° North 470 541 31,000  Level Edmonton Center
Mon 02:23:59 PM 65.4167 -75.8833 357° North 470 541 31,000  Level Edmonton Center
Mon 02:26:00 PM 65.6806 -75.9919 350° North  Level FlightAware Approximate
Mon 02:26:59 PM 65.8000 -75.9667 350° North 470 541 31,000  Level Edmonton Center
Mon 02:27:59 PM 65.9333 -75.9500 North 470 541 31,000  Level Edmonton Center
Mon 02:28:59 PM 66.0667 -75.9667 357° North 470 541 31,000  Level Edmonton Center
Mon 02:30:59 PM 66.3333 -76.0167 356° North 470 541 31,000  Level Edmonton Center
Mon 02:31:59 PM 66.4500 -76.0500 353° North 470 541 31,000  Level Edmonton Center
Mon 02:32:59 PM 66.5833 -76.0833 354° North 470 541 31,000  Level Edmonton Center
Mon 02:33:59 PM 66.7167 -76.1000 357° North 470 541 31,000 333 Level Edmonton Center
Mon 02:35:59 PM 66.9833 -76.1500 356° North 470 541 32,000 333 Climbing Edmonton Center
Mon 02:36:59 PM 67.1000 -76.1833 354° North 470 541 32,000  Level Edmonton Center
Mon 02:38:59 PM 67.3667 -76.2333 356° North 470 541 32,000  Level Edmonton Center
Mon 02:41:00 PM 67.6696 -76.3127 354° North  Level FlightAware Approximate
Mon 02:41:59 PM 67.7500 -76.2833 354° North 470 541 32,000  Level Edmonton Center
Mon 02:42:59 PM 67.8833 -76.3000 357° North 470 541 32,000  Level Edmonton Center
Mon 02:45:00 PM 68.1858 -76.3920 354° North  Level FlightAware Approximate
Mon 02:49:59 PM 68.8000 -76.5167 353° North 470 541 32,000  Level Edmonton Center
Mon 02:52:00 PM 69.2353 -76.7313 353° North  Level FlightAware Approximate
Mon 02:52:00 PM 69.0926 -76.7502 344° North  Level Estimated
Mon 02:52:59 PM 69.2000 -76.6000 344° North 470 541 32,000  Level Edmonton Center
Mon 02:53:00 PM 69.3851 -76.7824 353° North  Level FlightAware Approximate
Mon 02:53:59 PM 69.3333 -76.6167 357° North 470 541 32,000  Level Edmonton Center
Mon 02:54:00 PM 69.5350 -76.8343 353° North  Level FlightAware Approximate
Mon 02:55:00 PM 69.6848 -76.8869 353° North  Level FlightAware Approximate
Mon 02:55:59 PM 69.5833 -76.7000 353° North 480 552 32,000  Level Edmonton Center
Mon 02:57:59 PM 69.8500 -76.7500 356° North 480 552 32,000  Level Edmonton Center
Mon 02:58:59 PM 69.9833 -76.7667 358° North 480 552 32,000  Level Edmonton Center
Mon 03:01:00 PM 70.2832 -76.9203 350° North  Level FlightAware Approximate
Mon 03:02:59 PM 70.5000 -76.9667 350° North 470 541 32,000  Level Edmonton Center
Mon 03:03:59 PM 70.6333 -77.0667 346° North 470 541 32,000  Level Edmonton Center
Mon 03:04:59 PM 70.7667 -77.1000 355° North 470 541 32,000  Level Edmonton Center
Mon 03:06:59 PM 71.0167 -77.2333 350° North 470 541 32,000  Level Edmonton Center
Mon 03:07:59 PM 71.1500 -77.3333 346° North 470 541 32,000  Level Edmonton Center
Mon 03:08:00 PM 71.3232 -77.4905 350° North  Level FlightAware Approximate
Mon 03:08:59 PM 71.2833 -77.3667 355° North 470 541 32,000  Level Edmonton Center
Mon 03:09:59 PM 71.4000 -77.4167 352° North 470 541 32,000  Level Edmonton Center
Mon 03:10:59 PM 71.5500 -77.5000 350° North 470 541 32,000 67 Level Edmonton Center
Mon 03:13:00 PM 71.8481 -77.6966 348° North  Level FlightAware Approximate
Mon 03:20:00 PM 72.8811 -78.4303 348° North  Level FlightAware Approximate
Mon 03:21:00 PM 73.0285 -78.5422 348° North  Level FlightAware Approximate
Mon 03:22:00 PM 73.1758 -78.6559 347° North  Level FlightAware Approximate
Mon 03:23:00 PM 73.3230 -78.7716 347° North  Level FlightAware Approximate
Mon 03:24:00 PM 73.4702 -78.8894 347° North  Level FlightAware Approximate
Mon 03:25:00 PM 73.6200 -78.9893 350° North  Level FlightAware Approximate
Mon 03:26:00 PM 73.7684 -79.0880 349° North  Level FlightAware Approximate
Mon 03:27:00 PM 73.9168 -79.1884 349° North  Level FlightAware Approximate
Mon 03:28:00 PM 74.0651 -79.2906 349° North  Level FlightAware Approximate
Mon 03:29:00 PM 74.2133 -79.3960 349° North  Level FlightAware Approximate
Mon 03:30:00 PM 74.3613 -79.5050 349° North  Level FlightAware Approximate
Mon 03:31:00 PM 74.5093 -79.6161 349° North  Level FlightAware Approximate
Mon 03:32:00 PM 74.6572 -79.7292 349° North  Level FlightAware Approximate
Mon 03:33:00 PM 74.8051 -79.8445 348° North  Level FlightAware Approximate
Mon 03:34:00 PM 74.9529 -79.9621 348° North  Level FlightAware Approximate
Mon 03:35:00 PM 75.0974 -80.1278 341° North  Level FlightAware Approximate
Mon 03:36:00 PM 75.2402 -80.3183 341° North  Level FlightAware Approximate
Mon 03:37:00 PM 75.3829 -80.5125 341° North  Level FlightAware Approximate
Mon 03:38:00 PM 75.5255 -80.7105 341° North  Level FlightAware Approximate
Mon 03:39:00 PM 75.6678 -80.9122 341° North  Level FlightAware Approximate
Mon 03:40:00 PM 75.8100 -81.1180 340° North  Level FlightAware Approximate
Mon 03:40:00 PM 75.0000 -80.0000 341° North 476 548 34,000  Level ETMS Enhanced Traffic Management System
Mon 03:41:00 PM 75.9520 -81.3278 340° North  Level FlightAware Approximate
Mon 03:42:00 PM 76.0939 -81.5418 340° North  Level FlightAware Approximate
Mon 03:43:00 PM 76.2355 -81.7602 340° North  Level FlightAware Approximate
Mon 03:44:00 PM 76.3769 -81.9830 340° North  Level FlightAware Approximate
Mon 03:45:00 PM 76.5182 -82.2100 339° North  Level FlightAware Approximate
Mon 03:46:00 PM 76.1248 -81.5839 340° North 476 548 34,000  Level FlightAware Transoceanic
Mon 03:47:00 PM 76.2491 -81.7755 340° North 476 548 34,000  Level FlightAware Transoceanic
Mon 03:48:00 PM 76.3733 -81.9706 340° North 476 548 34,000  Level FlightAware Transoceanic
Mon 03:49:00 PM 76.4973 -82.1691 339° North 476 548 34,000  Level FlightAware Transoceanic
Mon 03:50:00 PM 76.6211 -82.3713 339° North 476 548 34,000  Level FlightAware Transoceanic
Mon 03:51:00 PM 76.7448 -82.5772 339° North 476 548 34,000  Level FlightAware Transoceanic
Mon 03:52:00 PM 76.8683 -82.7869 339° North 476 548 34,000  Level FlightAware Transoceanic
Mon 03:53:00 PM 76.9916 -83.0004 339° North 476 548 34,000  Level FlightAware Transoceanic
Mon 03:54:00 PM 77.1147 -83.2180 338° Northwest 476 548 34,000  Level FlightAware Transoceanic
Mon 03:55:00 PM 77.2377 -83.4398 338° Northwest 476 548 34,000  Level FlightAware Transoceanic
Mon 03:56:00 PM 77.3605 -83.6657 338° Northwest 476 548 34,000  Level FlightAware Transoceanic
Mon 03:57:00 PM 77.4831 -83.8960 338° Northwest 476 548 34,000  Level FlightAware Transoceanic
Mon 03:58:00 PM 77.6055 -84.1309 337° Northwest 476 548 34,000  Level FlightAware Transoceanic
Mon 03:59:00 PM 77.7276 -84.3702 337° Northwest 476 548 34,000  Level FlightAware Transoceanic
Mon 04:00:00 PM 77.8496 -84.6144 337° Northwest 476 548 34,000  Level FlightAware Transoceanic
Mon 04:01:00 PM 77.9714 -84.8634 337° Northwest 476 548 34,000  Level FlightAware Transoceanic
Mon 04:02:00 PM 78.0929 -85.1174 336° Northwest 476 548 34,000  Level FlightAware Transoceanic
Mon 04:03:00 PM 78.2142 -85.3766 336° Northwest 476 548 34,000  Level FlightAware Transoceanic
Mon 04:04:00 PM 78.3352 -85.6411 336° Northwest 476 548 34,000  Level FlightAware Transoceanic
Mon 04:05:00 PM 78.4560 -85.9110 336° Northwest 476 548 34,000  Level FlightAware Transoceanic
Mon 04:06:00 PM 78.5766 -86.1866 335° Northwest 476 548 34,000  Level FlightAware Transoceanic
Mon 04:07:00 PM 78.6969 -86.4680 335° Northwest 476 548 34,000  Level FlightAware Transoceanic
Mon 04:08:00 PM 78.8169 -86.7553 335° Northwest 476 548 34,000  Level FlightAware Transoceanic
Mon 04:09:00 PM 78.9366 -87.0488 335° Northwest 476 548 34,000  Level FlightAware Transoceanic
Mon 04:10:00 PM 79.0561 -87.3486 334° Northwest 476 548 34,000  Level FlightAware Transoceanic
Mon 04:11:00 PM 79.1752 -87.6550 334° Northwest 476 548 34,000  Level FlightAware Transoceanic
Mon 04:12:00 PM 79.2941 -87.9681 334° Northwest 476 548 34,000  Level FlightAware Transoceanic
Mon 04:13:00 PM 79.4126 -88.2881 333° Northwest 476 548 34,000  Level FlightAware Transoceanic
Mon 04:14:00 PM 79.5308 -88.6152 333° Northwest 476 548 34,000  Level FlightAware Transoceanic
Mon 04:15:00 PM 79.6486 -88.9498 333° Northwest 476 548 34,000  Level FlightAware Transoceanic
Mon 04:16:00 PM 79.7661 -89.2919 332° Northwest 476 548 34,000  Level FlightAware Transoceanic
Mon 04:17:00 PM 79.8832 -89.6419 332° Northwest 476 548 34,000 Level FlightAware Transoceanic
Mon 04:18:00 PM 80.0166 -90.0517 332° Northwest  Level FlightAware Approximate
Mon 04:19:00 PM 80.0306 -90.1271 324° Northwest  Level FlightAware Approximate
Mon 04:20:00 PM 80.1529 -90.6448 324° Northwest  Level FlightAware Approximate
Mon 04:21:00 PM 80.2745 -91.1753 324° Northwest  Level FlightAware Approximate
Mon 04:22:00 PM 80.3951 -91.7190 323° Northwest  Level FlightAware Approximate
Mon 04:23:00 PM 80.5149 -92.2764 323° Northwest  Level FlightAware Approximate
Mon 04:24:00 PM 80.6341 -92.8460 322° Northwest  Level FlightAware Approximate
Mon 04:25:00 PM 80.7529 -93.4256 322° Northwest  Level FlightAware Approximate
Mon 04:26:00 PM 80.8707 -94.0199 321° Northwest  Level FlightAware Approximate
Mon 04:27:00 PM 80.9876 -94.6297 321° Northwest  Level FlightAware Approximate
Mon 04:28:00 PM 81.1034 -95.2552 320° Northwest  Level FlightAware Approximate
Mon 04:29:00 PM 81.2182 -95.8971 320° Northwest  Level FlightAware Approximate
Mon 04:30:00 PM 81.3318 -96.5557 319° Northwest  Level FlightAware Approximate
Mon 04:31:00 PM 81.4443 -97.2316 318° Northwest  Level FlightAware Approximate
Mon 04:32:00 PM 81.5556 -97.9253 318° Northwest  Level FlightAware Approximate
Mon 04:33:00 PM 81.6656 -98.6372 317° Northwest  Level FlightAware Approximate
Mon 04:34:00 PM 81.7743 -99.3680 316° Northwest  Level FlightAware Approximate
Mon 04:35:00 PM 81.8817 -100.1180 316° Northwest  Level FlightAware Approximate
Mon 04:36:00 PM 81.9877 -100.8880 315° West  Level FlightAware Approximate
Mon 04:37:00 PM 82.0922 -101.6782 314° West  Level FlightAware Approximate
Mon 04:38:00 PM 82.1951 -102.4894 313° West  Level FlightAware Approximate
Mon 04:39:00 PM 82.2965 -103.3219 312° West  Level FlightAware Approximate
Mon 04:40:00 PM 82.3963 -104.1763 312° West  Level FlightAware Approximate
Mon 04:41:00 PM 82.4943 -105.0531 311° West  Level FlightAware Approximate
Mon 04:42:00 PM 82.5905 -105.9527 310° West  Level FlightAware Approximate
Mon 04:43:00 PM 82.6849 -106.8757 309° West  Level FlightAware Approximate
Mon 04:44:00 PM 82.7774 -107.8224 308° West  Level FlightAware Approximate
Mon 04:45:00 PM 82.8678 -108.7933 307° West  Level FlightAware Approximate
Mon 04:46:00 PM 82.9562 -109.7887 306° West  Level FlightAware Approximate
Mon 04:47:00 PM 83.0424 -110.8089 305° West  Level FlightAware Approximate
Mon 04:48:00 PM 83.1264 -111.8543 304° West  Level FlightAware Approximate
Mon 04:49:00 PM 83.2081 -112.9251 302° West  Level FlightAware Approximate
Mon 04:50:00 PM 83.2872 -114.0220 302° West  Level FlightAware Approximate
Mon 04:51:00 PM 83.3638 -115.1446 301° West  Level FlightAware Approximate
Mon 04:52:00 PM 83.4379 -116.2928 300° West  Level FlightAware Approximate
Mon 04:53:00 PM 83.5093 -117.4667 299° West  Level FlightAware Approximate
Mon 04:54:00 PM 83.5779 -118.6660 298° West  Level FlightAware Approximate
Mon 04:55:00 PM 83.6436 -119.8906 296° West  Level FlightAware Approximate
Mon 04:56:00 PM 83.7065 -121.1402 295° West  Level FlightAware Approximate
Mon 04:57:00 PM 83.7663 -122.4142 294° West  Level FlightAware Approximate
Mon 04:58:00 PM 83.8230 -123.7121 293° West  Level FlightAware Approximate
Mon 04:59:00 PM 83.8765 -125.0333 291° West  Level FlightAware Approximate
Mon 05:00:00 PM 83.9267 -126.3770 290° West  Level FlightAware Approximate
Mon 05:01:00 PM 83.9735 -127.7422 289° West  Level FlightAware Approximate
Mon 05:02:00 PM 84.0169 -129.1280 287° West  Level FlightAware Approximate
Mon 05:03:00 PM 84.0567 -130.5331 286° West  Level FlightAware Approximate
Mon 05:04:00 PM 84.0930 -131.9562 285° West  Level FlightAware Approximate
Mon 05:05:00 PM 84.1256 -133.3959 283° West  Level FlightAware Approximate
Mon 05:06:00 PM 84.1545 -134.8508 282° West  Level FlightAware Approximate
Mon 05:07:00 PM 84.1796 -136.3191 280° West  Level FlightAware Approximate
Mon 05:08:00 PM 84.2008 -137.7991 279° West  Level FlightAware Approximate
Mon 05:09:00 PM 84.2182 -139.2890 277° West  Level FlightAware Approximate
Mon 05:10:00 PM 84.2317 -140.7868 276° West  Level FlightAware Approximate
Mon 05:11:00 PM 84.2751 -142.2280 289° West  Level FlightAware Approximate
Mon 05:12:00 PM 84.3203 -143.6811 288° West  Level FlightAware Approximate
Mon 05:13:00 PM 84.3619 -145.1566 287° West  Level FlightAware Approximate
Mon 05:14:00 PM 84.3998 -146.6529 285° West  Level FlightAware Approximate
Mon 05:15:00 PM 84.4337 -148.1685 284° West  Level FlightAware Approximate
Mon 05:16:00 PM 84.4638 -149.7016 282° West  Level FlightAware Approximate
Mon 05:17:00 PM 84.4899 -151.2502 281° West  Level FlightAware Approximate
Mon 05:18:00 PM 84.5120 -152.8124 279° West  Level FlightAware Approximate
Mon 05:19:00 PM 84.5299 -154.3860 278° West  Level FlightAware Approximate
Mon 05:20:00 PM 84.5438 -155.9687 276° West  Level FlightAware Approximate
Mon 05:21:00 PM 84.5534 -157.5582 274° West  Level FlightAware Approximate
Mon 05:22:00 PM 84.5589 -159.1522 273° West  Level FlightAware Approximate
Mon 05:23:00 PM 84.5602 -160.7481 271° West  Level FlightAware Approximate
Mon 05:24:00 PM 84.5574 -162.3436 270° West  Level FlightAware Approximate
Mon 05:25:00 PM 84.5503 -163.9362 268° West  Level FlightAware Approximate
Mon 05:26:00 PM 84.5390 -165.5235 267° West  Level FlightAware Approximate
Mon 05:27:00 PM 84.5236 -167.1030 265° West  Level FlightAware Approximate
Mon 05:28:00 PM 84.5041 -168.6725 263° West  Level FlightAware Approximate
Mon 05:29:00 PM 84.4746 -170.2177 259° West  Level FlightAware Approximate
Mon 05:30:00 PM 84.4398 -171.7423 257° West  Level FlightAware Approximate
Mon 05:31:00 PM 84.4011 -173.2469 256° West  Level FlightAware Approximate
Mon 05:32:00 PM 84.3587 -174.7299 254° West  Level FlightAware Approximate
Mon 05:33:00 PM 84.3125 -176.1900 253° West  Level FlightAware Approximate
Mon 05:34:00 PM 84.2627 -177.6256 252° West  Level FlightAware Approximate
Mon 05:35:00 PM 84.2094 -179.0358 250° West  Level FlightAware Approximate
Mon 05:36:00 PM 84.1527 179.5804 249° West  Level FlightAware Approximate
Mon 05:37:00 PM 84.0927 178.2239 247° West  Level FlightAware Approximate
Mon 05:38:00 PM 84.0295 176.8953 246° West  Level FlightAware Approximate
Mon 05:39:00 PM 83.9631 175.5952 245° Southwest  Level FlightAware Approximate
Mon 05:40:00 PM 83.8940 174.3283 243° Southwest  Level FlightAware Approximate
Mon 05:41:00 PM 83.8219 173.0903 242° Southwest  Level FlightAware Approximate
Mon 05:42:00 PM 83.7471 171.8812 241° Southwest  Level FlightAware Approximate
Mon 05:43:00 PM 83.6696 170.7011 240° Southwest  Level FlightAware Approximate
Mon 05:44:00 PM 83.5895 169.5500 238° Southwest  Level FlightAware Approximate
Mon 05:45:00 PM 83.5069 168.4275 237° Southwest  Level FlightAware Approximate
Mon 05:46:00 PM 83.4218 167.3336 236° Southwest  Level FlightAware Approximate
Mon 05:47:00 PM 83.3345 166.2678 235° Southwest  Level FlightAware Approximate
Mon 05:48:00 PM 83.2449 165.2298 234° Southwest  Level FlightAware Approximate
Mon 05:49:00 PM 83.1532 164.2192 233° Southwest  Level FlightAware Approximate
Mon 05:50:00 PM 83.0594 163.2355 232° Southwest  Level FlightAware Approximate
Mon 05:51:00 PM 82.9637 162.2781 231° Southwest  Level FlightAware Approximate
Mon 05:52:00 PM 82.8661 161.3466 230° Southwest  Level FlightAware Approximate
Mon 05:53:00 PM 82.7666 160.4403 229° Southwest  Level FlightAware Approximate
Mon 05:54:00 PM 82.6659 159.5553 228° Southwest  Level FlightAware Approximate
Mon 05:55:00 PM 82.5640 158.6909 228° Southwest  Level FlightAware Approximate
Mon 05:56:00 PM 82.4604 157.8500 227° Southwest  Level FlightAware Approximate
Mon 05:57:00 PM 82.3553 157.0320 226° Southwest  Level FlightAware Approximate
Mon 05:58:00 PM 82.2487 156.2361 225° Southwest  Level FlightAware Approximate
Mon 05:59:00 PM 82.1408 155.4608 224° Southwest  Level FlightAware Approximate
Mon 06:00:00 PM 82.0316 154.7057 224° Southwest  Level FlightAware Approximate
Mon 06:01:00 PM 81.9210 153.9710 223° Southwest  Level FlightAware Approximate
Mon 06:02:00 PM 81.8092 153.2560 222° Southwest  Level FlightAware Approximate
Mon 06:03:00 PM 81.6962 152.5604 222° Southwest  Level FlightAware Approximate
Mon 06:04:00 PM 81.5814 151.8886 220° Southwest  Level FlightAware Approximate
Mon 06:05:00 PM 81.4650 151.2384 220° Southwest  Level FlightAware Approximate
Mon 06:06:00 PM 81.3475 150.6057 219° Southwest  Level FlightAware Approximate
Mon 06:07:00 PM 81.2291 149.9898 219° Southwest  Level FlightAware Approximate
Mon 06:08:00 PM 81.1096 149.3903 218° Southwest  Level FlightAware Approximate
Mon 06:09:00 PM 80.9893 148.8066 217° Southwest  Level FlightAware Approximate
Mon 06:10:00 PM 80.8680 148.2383 217° Southwest  Level FlightAware Approximate
Mon 06:11:00 PM 80.7459 147.6848 216° Southwest  Level FlightAware Approximate
Mon 06:12:00 PM 80.6230 147.1456 216° Southwest  Level FlightAware Approximate
Mon 06:13:00 PM 80.4992 146.6202 215° Southwest  Level FlightAware Approximate
Mon 06:14:00 PM 80.3747 146.1084 215° Southwest  Level FlightAware Approximate
Mon 06:15:00 PM 80.2495 145.6095 214° Southwest  Level FlightAware Approximate
Mon 06:16:00 PM 80.1235 145.1231 214° Southwest  Level FlightAware Approximate
Mon 06:17:00 PM 79.9969 144.6490 213° Southwest  Level FlightAware Approximate
Mon 06:18:00 PM 79.8696 144.1865 213° Southwest  Level FlightAware Approximate
Mon 06:19:00 PM 79.7417 143.7355 212° Southwest  Level FlightAware Approximate
Mon 06:20:00 PM 79.6132 143.2955 212° Southwest  Level FlightAware Approximate
Mon 06:21:00 PM 79.4841 142.8662 211° Southwest  Level FlightAware Approximate
Mon 06:22:00 PM 79.3544 142.4471 211° Southwest  Level FlightAware Approximate
Mon 06:23:00 PM 79.2242 142.0381 210° Southwest  Level FlightAware Approximate
Mon 06:24:00 PM 79.0935 141.6388 210° Southwest  Level FlightAware Approximate
Mon 06:25:00 PM 78.9623 141.2488 210° Southwest  Level FlightAware Approximate
Mon 06:26:00 PM 78.8306 140.8678 209° Southwest  Level FlightAware Approximate
Mon 06:27:00 PM 78.6984 140.4957 209° Southwest  Level FlightAware Approximate
Mon 06:28:00 PM 78.5657 140.1320 209° Southwest  Level FlightAware Approximate
Mon 06:29:00 PM 78.4327 139.7762 208° Southwest  Level FlightAware Approximate
Mon 06:30:00 PM 78.2992 139.4281 208° Southwest  Level FlightAware Approximate
Mon 06:31:00 PM 78.1654 139.0878 208° Southwest  Level FlightAware Approximate
Mon 06:32:00 PM 78.0312 138.7550 207° Southwest  Level FlightAware Approximate
Mon 06:33:00 PM 77.8965 138.4294 207° Southwest  Level FlightAware Approximate
Mon 06:34:00 PM 77.7615 138.1110 207° Southwest  Level FlightAware Approximate
Mon 06:35:00 PM 77.6262 137.7993 206° Southwest  Level FlightAware Approximate
Mon 06:36:00 PM 77.4905 137.4944 206° Southwest  Level FlightAware Approximate
Mon 06:37:00 PM 77.3544 137.1958 206° Southwest  Level FlightAware Approximate
Mon 06:38:00 PM 77.2181 136.9036 205° Southwest  Level FlightAware Approximate
Mon 06:39:00 PM 77.0814 136.6174 205° Southwest  Level FlightAware Approximate
Mon 06:40:00 PM 76.9444 136.3371 205° Southwest  Level FlightAware Approximate
Mon 06:41:00 PM 76.8071 136.0625 205° Southwest  Level FlightAware Approximate
Mon 06:42:00 PM 76.6695 135.7935 204° Southwest  Level FlightAware Approximate
Mon 06:43:00 PM 76.5317 135.5300 204° Southwest  Level FlightAware Approximate
Mon 06:44:00 PM 76.3936 135.2716 204° Southwest  Level FlightAware Approximate
Mon 06:45:00 PM 76.2552 135.0184 204° Southwest  Level FlightAware Approximate
Mon 06:46:00 PM 76.1166 134.7701 203° Southwest  Level FlightAware Approximate
Mon 06:47:00 PM 75.9777 134.5266 203° Southwest  Level FlightAware Approximate
Mon 06:48:00 PM 75.8386 134.2878 203° Southwest  Level FlightAware Approximate
Mon 06:49:00 PM 75.6993 134.0535 203° Southwest  Level FlightAware Approximate
Mon 06:50:00 PM 75.5597 133.8237 202° Southwest  Level FlightAware Approximate
Mon 06:51:00 PM 75.4199 133.5983 202° Southwest  Level FlightAware Approximate
Mon 06:52:00 PM 75.2799 133.3770 202° Southwest  Level FlightAware Approximate
Mon 06:53:00 PM 75.1397 133.1597 202° Southwest  Level FlightAware Approximate
Mon 06:54:00 PM 74.9993 132.9465 201° Southwest  Level FlightAware Approximate
Mon 06:55:00 PM 74.8587 132.7371 201° Southwest  Level FlightAware Approximate
Mon 06:56:00 PM 74.7179 132.5315 201° Southwest  Level FlightAware Approximate
Mon 06:57:00 PM 74.5769 132.3295 201° Southwest  Level FlightAware Approximate
Mon 06:58:00 PM 74.4358 132.1312 201° Southwest  Level FlightAware Approximate
Mon 06:59:00 PM 74.2945 131.9358 201° Southwest  Level FlightAware Approximate
Mon 07:00:00 PM 74.1533 131.7416 201° Southwest  Level FlightAware Approximate
Mon 07:01:00 PM 74.0119 131.5507 200° South  Level FlightAware Approximate
Mon 07:02:00 PM 73.8703 131.3630 200° South  Level FlightAware Approximate
Mon 07:03:00 PM 73.7286 131.1786 200° South  Level FlightAware Approximate
Mon 07:04:00 PM 73.5867 130.9972 200° South  Level FlightAware Approximate
Mon 07:05:00 PM 73.4447 130.8189 200° South  Level FlightAware Approximate
Mon 07:06:00 PM 73.3025 130.6435 200° South  Level FlightAware Approximate
Mon 07:07:00 PM 73.1602 130.4710 199° South  Level FlightAware Approximate
Mon 07:08:00 PM 73.0177 130.3013 199° South  Level FlightAware Approximate
Mon 07:09:00 PM 72.8746 130.1402 198° South  Level FlightAware Approximate
Mon 07:10:00 PM 72.7312 129.9818 198° South  Level FlightAware Approximate
Mon 07:11:00 PM 72.5870 129.8250 198° South  Level FlightAware Approximate
Mon 07:12:00 PM 72.4426 129.6706 198° South  Level FlightAware Approximate
Mon 07:13:00 PM 72.2980 129.5188 198° South  Level FlightAware Approximate
Mon 07:14:00 PM 72.1534 129.3693 198° South  Level FlightAware Approximate
Mon 07:15:00 PM 72.0086 129.2221 197° South  Level FlightAware Approximate
Mon 07:16:00 PM 71.8637 129.0772 197° South  Level FlightAware Approximate
Mon 07:17:00 PM 71.7188 128.9345 197° South  Level FlightAware Approximate
Mon 07:18:00 PM 71.5688 128.9150 178° South  Level FlightAware Approximate
Mon 07:19:00 PM 71.4173 128.9347 178° South  Level FlightAware Approximate
Mon 07:20:00 PM 71.2657 128.9540 178° South  Level FlightAware Approximate
Mon 07:21:00 PM 71.1142 128.9730 178° South  Level FlightAware Approximate
Mon 07:22:00 PM 70.9626 128.9917 178° South  Level FlightAware Approximate
Mon 07:23:00 PM 70.8110 129.0102 178° South  Level FlightAware Approximate
Mon 07:24:00 PM 70.6595 129.0284 178° South  Level FlightAware Approximate
Mon 07:25:00 PM 70.5079 129.0462 178° South  Level FlightAware Approximate
Mon 07:26:00 PM 70.3564 129.0639 178° South  Level FlightAware Approximate
Mon 07:27:00 PM 70.2048 129.0813 178° South  Level FlightAware Approximate
Mon 07:28:00 PM 70.0532 129.0984 178° South  Level FlightAware Approximate
Mon 07:29:00 PM 69.9017 129.1152 178° South  Level FlightAware Approximate
Mon 07:30:00 PM 69.7501 129.1319 178° South  Level FlightAware Approximate
Mon 07:31:00 PM 69.5985 129.1483 178° South  Level FlightAware Approximate
Mon 07:32:00 PM 69.4470 129.1644 178° South  Level FlightAware Approximate
Mon 07:33:00 PM 69.2954 129.1803 178° South  Level FlightAware Approximate
Mon 07:34:00 PM 69.1438 129.1969 178° South  Level FlightAware Approximate
Mon 07:35:00 PM 68.9923 129.2133 178° South  Level FlightAware Approximate
Mon 07:36:00 PM 68.8407 129.2296 178° South  Level FlightAware Approximate
Mon 07:37:00 PM 68.6891 129.2456 178° South  Level FlightAware Approximate
Mon 07:38:00 PM 68.5376 129.2615 178° South  Level FlightAware Approximate
Mon 07:39:00 PM 68.3860 129.2771 178° South  Level FlightAware Approximate
Mon 07:40:00 PM 68.2344 129.2925 178° South  Level FlightAware Approximate
Mon 07:41:00 PM 68.0829 129.3077 178° South  Level FlightAware Approximate
Mon 07:42:00 PM 67.9313 129.3227 178° South  Level FlightAware Approximate
Mon 07:43:00 PM 67.7797 129.3375 178° South  Level FlightAware Approximate
Mon 07:44:00 PM 67.6282 129.3520 178° South  Level FlightAware Approximate
Mon 07:45:00 PM 67.4766 129.3656 178° South  Level FlightAware Approximate
Mon 07:46:00 PM 67.3250 129.3790 178° South  Level FlightAware Approximate
Mon 07:47:00 PM 67.1734 129.3922 178° South  Level FlightAware Approximate
Mon 07:48:00 PM 67.0218 129.4053 178° South  Level FlightAware Approximate
Mon 07:49:00 PM 66.8702 129.4182 178° South  Level FlightAware Approximate
Mon 07:50:00 PM 66.7186 129.4310 178° South  Level FlightAware Approximate
Mon 07:51:00 PM 66.5670 129.4436 178° South  Level FlightAware Approximate
Mon 07:52:00 PM 66.4154 129.4560 178° South  Level FlightAware Approximate
Mon 07:53:00 PM 66.2638 129.4683 178° South  Level FlightAware Approximate
Mon 07:54:00 PM 66.1122 129.4805 178° South  Level FlightAware Approximate
Mon 07:55:00 PM 65.9606 129.4925 178° South  Level FlightAware Approximate
Mon 07:56:00 PM 65.8090 129.5044 178° South  Level FlightAware Approximate
Mon 07:57:00 PM 65.6574 129.5161 178° South  Level FlightAware Approximate
Mon 07:58:00 PM 65.5058 129.5281 178° South  Level FlightAware Approximate
Mon 07:59:00 PM 65.3542 129.5400 178° South  Level FlightAware Approximate
Mon 08:00:00 PM 65.2027 129.5518 178° South  Level FlightAware Approximate
Mon 08:01:00 PM 65.0510 129.5634 178° South  Level FlightAware Approximate
Mon 08:02:00 PM 64.8995 129.5749 178° South  Level FlightAware Approximate
Mon 08:03:00 PM 64.7478 129.5863 178° South  Level FlightAware Approximate
Mon 08:04:00 PM 64.5963 129.5976 178° South  Level FlightAware Approximate
Mon 08:05:00 PM 64.4446 129.6087 178° South  Level FlightAware Approximate
Mon 08:06:00 PM 64.2931 129.6197 178° South  Level FlightAware Approximate
Mon 08:07:00 PM 64.1414 129.6306 178° South  Level FlightAware Approximate
Mon 08:08:00 PM 63.9898 129.6413 178° South  Level FlightAware Approximate
Mon 08:09:00 PM 63.8382 129.6520 178° South  Level FlightAware Approximate
Mon 08:10:00 PM 63.6866 129.6624 178° South  Level FlightAware Approximate
Mon 08:11:00 PM 63.5350 129.6728 178° South  Level FlightAware Approximate
Mon 08:12:00 PM 63.3834 129.6830 178° South  Level FlightAware Approximate
Mon 08:13:00 PM 63.2320 129.6932 178° South  Level FlightAware Approximate
Mon 08:14:00 PM 63.0806 129.7032 178° South  Level FlightAware Approximate
Mon 08:15:00 PM 62.9291 129.7131 178° South  Level FlightAware Approximate
Mon 08:16:00 PM 62.7777 129.7229 178° South  Level FlightAware Approximate
Mon 08:17:00 PM 62.6263 129.7326 178° South  Level FlightAware Approximate
Mon 08:18:00 PM 62.4748 129.7422 178° South  Level FlightAware Approximate
Mon 08:19:00 PM 62.3234 129.7518 178° South  Level FlightAware Approximate
Mon 08:20:00 PM 62.1720 129.7612 178° South  Level FlightAware Approximate
Mon 08:21:00 PM 62.0228 129.7309 196° South  Level FlightAware Approximate
Mon 08:22:00 PM 61.8768 129.6450 195° South  Level FlightAware Approximate
Mon 08:23:00 PM 61.7307 129.5600 195° South  Level FlightAware Approximate
Mon 08:24:00 PM 61.5846 129.4758 195° South  Level FlightAware Approximate
Mon 08:25:00 PM 61.4384 129.3923 195° South  Level FlightAware Approximate
Mon 08:26:00 PM 61.2922 129.3097 195° South  Level FlightAware Approximate
Mon 08:27:00 PM 61.1459 129.2278 195° South  Level FlightAware Approximate
Mon 08:28:00 PM 60.9996 129.1467 195° South  Level FlightAware Approximate
Mon 08:29:00 PM 60.8532 129.0663 195° South  Level FlightAware Approximate
Mon 08:30:00 PM 60.7068 128.9867 195° South  Level FlightAware Approximate
Mon 08:31:00 PM 60.5604 128.9077 195° South  Level FlightAware Approximate
Mon 08:32:00 PM 60.4138 128.8295 195° South  Level FlightAware Approximate
Mon 08:33:00 PM 60.2673 128.7520 195° South  Level FlightAware Approximate
Mon 08:34:00 PM 60.1204 128.6777 194° South  Level FlightAware Approximate
Mon 08:35:00 PM 59.9731 128.6062 194° South  Level FlightAware Approximate
Mon 08:36:00 PM 59.8259 128.5354 194° South  Level FlightAware Approximate
Mon 08:37:00 PM 59.6786 128.4651 194° South  Level FlightAware Approximate
Mon 08:38:00 PM 59.5312 128.3955 193° South  Level FlightAware Approximate
Mon 08:39:00 PM 59.3839 128.3265 193° South  Level FlightAware Approximate
Mon 08:40:00 PM 59.2364 128.2581 193° South  Level FlightAware Approximate
Mon 08:41:00 PM 59.0890 128.1902 193° South  Level FlightAware Approximate
Mon 08:42:00 PM 58.9415 128.1230 193° South  Level FlightAware Approximate
Mon 08:43:00 PM 58.7940 128.0563 193° South  Level FlightAware Approximate
Mon 08:44:00 PM 58.6464 127.9902 193° South  Level FlightAware Approximate
Mon 08:45:00 PM 58.4988 127.9246 193° South  Level FlightAware Approximate
Mon 08:46:00 PM 58.3512 127.8596 193° South  Level FlightAware Approximate
Mon 08:47:00 PM 58.2036 127.7951 193° South  Level FlightAware Approximate
Mon 08:48:00 PM 58.0559 127.7312 193° South  Level FlightAware Approximate
Mon 08:49:00 PM 57.9065 127.6887 184° South  Level FlightAware Approximate
Mon 08:50:00 PM 57.7554 127.6666 184° South  Level FlightAware Approximate
Mon 08:51:00 PM 57.6044 127.6446 184° South  Level FlightAware Approximate
Mon 08:52:00 PM 57.4534 127.6229 184° South  Level FlightAware Approximate
Mon 08:53:00 PM 57.3023 127.6013 184° South  Level FlightAware Approximate
Mon 08:54:00 PM 57.1513 127.5799 184° South  Level FlightAware Approximate
Mon 08:55:00 PM 57.0002 127.5587 184° South  Level FlightAware Approximate
Mon 08:56:00 PM 56.8492 127.5377 184° South  Level FlightAware Approximate
Mon 08:57:00 PM 56.6981 127.5168 184° South  Level FlightAware Approximate
Mon 08:58:00 PM 56.5470 127.4961 184° South  Level FlightAware Approximate
Mon 08:59:00 PM 56.3960 127.4755 184° South  Level FlightAware Approximate
Mon 09:00:00 PM 56.2449 127.4551 184° South  Level FlightAware Approximate
Mon 09:01:00 PM 56.0938 127.4349 184° South  Level FlightAware Approximate
Mon 09:02:00 PM 55.9427 127.4148 184° South  Level FlightAware Approximate
Mon 09:03:00 PM 55.7916 127.3949 184° South  Level FlightAware Approximate
Mon 09:04:00 PM 55.6405 127.3752 184° South  Level FlightAware Approximate
Mon 09:05:00 PM 55.4895 127.3556 184° South  Level FlightAware Approximate
Mon 09:06:00 PM 55.3384 127.3361 184° South  Level FlightAware Approximate
Mon 09:07:00 PM 55.1870 127.3249 182° South  Level FlightAware Approximate
Mon 09:08:00 PM 55.0356 127.3151 182° South  Level FlightAware Approximate
Mon 09:09:00 PM 54.8843 127.3054 182° South  Level FlightAware Approximate
Mon 09:10:00 PM 54.7329 127.2947 183° South  Level FlightAware Approximate
Mon 09:11:00 PM 54.5815 127.2828 183° South  Level FlightAware Approximate
Mon 09:12:00 PM 54.4302 127.2711 183° South  Level FlightAware Approximate
Mon 09:13:00 PM 54.2789 127.2594 183° South  Level FlightAware Approximate
Mon 09:14:00 PM 54.1275 127.2478 183° South  Level FlightAware Approximate
Mon 09:15:00 PM 53.9762 127.2362 183° South  Level FlightAware Approximate
Mon 09:16:00 PM 53.8248 127.2248 183° South  Level FlightAware Approximate
Mon 09:17:00 PM 53.6740 127.2281 171° South  Level FlightAware Approximate
Mon 09:18:00 PM 53.5243 127.2680 171° South  Level FlightAware Approximate
Mon 09:19:00 PM 53.3747 127.3077 171° South  Level FlightAware Approximate
Mon 09:20:00 PM 53.2251 127.3470 171° South  Level FlightAware Approximate
Mon 09:21:00 PM 53.0754 127.3861 171° South  Level FlightAware Approximate
Mon 09:22:00 PM 52.9257 127.4249 171° South  Level FlightAware Approximate
Mon 09:23:00 PM 52.7760 127.4635 171° South  Level FlightAware Approximate
Mon 09:24:00 PM 52.6263 127.5019 171° South  Level FlightAware Approximate
Mon 09:25:00 PM 52.4767 127.5417 171° South  Level FlightAware Approximate
Mon 09:26:00 PM 52.3272 127.5812 171° South  Level FlightAware Approximate
Mon 09:27:00 PM 52.1776 127.6204 171° South  Level FlightAware Approximate
Mon 09:28:00 PM 52.0280 127.6594 171° South  Level FlightAware Approximate
Mon 09:29:00 PM 51.8769 127.6667 180° South  Level FlightAware Approximate
Mon 09:30:00 PM 51.7254 127.6667 180° South  Level FlightAware Approximate
Mon 09:31:00 PM 51.5739 127.6667 180° South  Level FlightAware Approximate
Mon 09:32:00 PM 51.4224 127.6667 180° South  Level FlightAware Approximate
Mon 09:33:00 PM 51.2716 127.6544 190° South  Level FlightAware Approximate
Mon 09:34:00 PM 51.1222 127.6137 190° South  Level FlightAware Approximate
Mon 09:35:00 PM 50.9729 127.5734 190° South  Level FlightAware Approximate
Mon 09:36:00 PM 50.8235 127.5333 190° South  Level FlightAware Approximate
Mon 09:37:00 PM 50.6741 127.4935 190° South  Level FlightAware Approximate
Mon 09:38:00 PM 50.5247 127.4539 190° South  Level FlightAware Approximate
Mon 09:39:00 PM 50.3756 127.4128 198° South  Level FlightAware Approximate
Mon 09:40:00 PM 50.2351 127.4068 152° Southeast  Level FlightAware Approximate
Mon 09:41:00 PM 50.1012 127.5176 152° Southeast  Level FlightAware Approximate
Mon 09:42:00 PM 49.9673 127.6277 152° Southeast  Level FlightAware Approximate
Mon 09:43:00 PM 49.8332 127.7373 152° Southeast  Level FlightAware Approximate
Mon 09:44:00 PM 49.6990 127.8462 152° Southeast  Level FlightAware Approximate
Mon 09:45:00 PM 49.5648 127.9546 152° Southeast  Level FlightAware Approximate
Mon 09:46:00 PM 49.4304 128.0623 153° Southeast  Level FlightAware Approximate
Mon 09:47:00 PM 49.2958 128.1691 153° Southeast  Level FlightAware Approximate
Mon 09:48:00 PM 49.1612 128.2753 153° Southeast  Level FlightAware Approximate
Mon 09:49:00 PM 49.0264 128.3810 153° Southeast  Level FlightAware Approximate
Mon 09:50:00 PM 48.8915 128.4861 153° Southeast  Level FlightAware Approximate
Mon 09:51:00 PM 48.7566 128.5907 153° Southeast  Level FlightAware Approximate
Mon 09:52:00 PM 48.6215 128.6947 153° Southeast  Level FlightAware Approximate
Mon 09:53:00 PM 48.4864 128.7981 153° Southeast  Level FlightAware Approximate
Mon 09:54:00 PM 48.3511 128.9010 153° Southeast  Level FlightAware Approximate
Mon 09:55:00 PM 48.2158 129.0033 153° Southeast  Level FlightAware Approximate
Mon 09:56:00 PM 48.0804 129.1051 153° Southeast  Level FlightAware Approximate
Mon 09:57:00 PM 47.9449 129.2063 153° Southeast  Level FlightAware Approximate
Mon 09:58:00 PM 47.8093 129.3071 153° Southeast  Level FlightAware Approximate
Mon 09:59:00 PM 47.6736 129.4073 154° Southeast  Level FlightAware Approximate
Mon 10:00:00 PM 47.5378 129.5070 154° Southeast  Level FlightAware Approximate
Mon 10:01:00 PM 47.4020 129.6062 154° Southeast  Level FlightAware Approximate
Mon 10:02:00 PM 47.2660 129.7048 154° Southeast  Level FlightAware Approximate
Mon 10:03:00 PM 47.1300 129.8030 154° Southeast  Level FlightAware Approximate
Mon 10:04:00 PM 46.9939 129.9006 154° Southeast  Level FlightAware Approximate
Mon 10:05:00 PM 46.8577 129.9978 154° Southeast  Level FlightAware Approximate
Mon 10:06:00 PM 46.7215 130.0944 154° Southeast  Level FlightAware Approximate
Mon 10:07:00 PM 46.5851 130.1906 154° Southeast  Level FlightAware Approximate
Mon 10:08:00 PM 46.4487 130.2863 154° Southeast  Level FlightAware Approximate
Mon 10:09:00 PM 46.3122 130.3815 154° Southeast  Level FlightAware Approximate
Mon 10:10:00 PM 46.1756 130.4763 154° Southeast  Level FlightAware Approximate
Mon 10:11:00 PM 46.0392 130.5703 154° Southeast  Level FlightAware Approximate
Mon 10:12:00 PM 45.9028 130.6639 154° Southeast  Level FlightAware Approximate
Mon 10:13:00 PM 45.7663 130.7570 155° Southeast  Level FlightAware Approximate
Mon 10:14:00 PM 45.6297 130.8497 155° Southeast  Level FlightAware Approximate
Mon 10:15:00 PM 45.4931 130.9419 155° Southeast  Level FlightAware Approximate
Mon 10:16:00 PM 45.3564 131.0337 155° Southeast  Level FlightAware Approximate
Mon 10:17:00 PM 45.2196 131.1250 155° Southeast  Level FlightAware Approximate
Mon 10:18:00 PM 45.0827 131.2159 155° Southeast  Level FlightAware Approximate
Mon 10:19:00 PM 44.9458 131.3064 155° Southeast  Level FlightAware Approximate
Mon 10:20:00 PM 44.8088 131.3964 155° Southeast  Level FlightAware Approximate
Mon 10:21:00 PM 44.6717 131.4860 155° Southeast  Level FlightAware Approximate
Mon 10:22:00 PM 44.5345 131.5752 155° Southeast  Level FlightAware Approximate
Mon 10:23:00 PM 44.3973 131.6640 155° Southeast  Level FlightAware Approximate
Mon 10:24:00 PM 44.2600 131.7523 155° Southeast  Level FlightAware Approximate
Mon 10:25:00 PM 44.1227 131.8402 155° Southeast  Level FlightAware Approximate
Mon 10:26:00 PM 43.9852 131.9277 155° Southeast  Level FlightAware Approximate
Mon 10:27:00 PM 43.8478 132.0149 155° Southeast  Level FlightAware Approximate
Mon 10:28:00 PM 43.7102 132.1016 155° Southeast  Level FlightAware Approximate
Mon 10:29:00 PM 43.5726 132.1879 156° South  Level FlightAware Approximate
Mon 10:30:00 PM 43.4349 132.2738 156° South  Level FlightAware Approximate
Mon 10:31:00 PM 43.2972 132.3594 156° South  Level FlightAware Approximate
Mon 10:32:00 PM 43.1594 132.4445 156° South  Level FlightAware Approximate
Mon 10:33:00 PM 43.0215 132.5293 156° South  Level FlightAware Approximate
Mon 10:34:00 PM 42.8835 132.6137 156° South  Level FlightAware Approximate
Mon 10:35:00 PM 42.7455 132.6977 156° South  Level FlightAware Approximate
Mon 10:36:00 PM 42.6075 132.7813 156° South  Level FlightAware Approximate
Mon 10:37:00 PM 42.4694 132.8646 156° South  Level FlightAware Approximate
Mon 10:38:00 PM 42.3312 132.9475 156° South  Level FlightAware Approximate
Mon 10:39:00 PM 42.1929 133.0300 156° South  Level FlightAware Approximate
Mon 10:40:00 PM 42.0546 133.1122 156° South  Level FlightAware Approximate
Mon 10:41:00 PM 41.9163 133.1940 156° South  Level FlightAware Approximate
Mon 10:42:00 PM 41.7779 133.2755 156° South  Level FlightAware Approximate
Mon 10:43:00 PM 41.6394 133.3566 156° South  Level FlightAware Approximate
Mon 10:44:00 PM 41.5009 133.4374 156° South  Level FlightAware Approximate
Mon 10:45:00 PM 41.3623 133.5178 156° South  Level FlightAware Approximate
Mon 10:46:00 PM 41.2237 133.5979 157° South  Level FlightAware Approximate
Mon 10:47:00 PM 41.0850 133.6776 157° South  Level FlightAware Approximate
Mon 10:48:00 PM 40.9462 133.7571 157° South  Level FlightAware Approximate
Mon 10:49:00 PM 40.8074 133.8361 157° South  Level FlightAware Approximate
Mon 10:50:00 PM 40.6685 133.9149 157° South  Level FlightAware Approximate
Mon 10:51:00 PM 40.5296 133.9933 157° South  Level FlightAware Approximate
Mon 10:52:00 PM 40.3907 134.0714 157° South  Level FlightAware Approximate
Mon 10:53:00 PM 40.2517 134.1492 157° South  Level FlightAware Approximate
Mon 10:54:00 PM 40.1126 134.2266 157° South  Level FlightAware Approximate
Mon 10:55:00 PM 39.9735 134.3037 157° South  Level FlightAware Approximate
Mon 10:56:00 PM 39.8343 134.3806 157° South  Level FlightAware Approximate
Mon 10:57:00 PM 39.6951 134.4571 157° South  Level FlightAware Approximate
Mon 10:58:00 PM 39.5558 134.5333 157° South  Level FlightAware Approximate
Mon 10:59:00 PM 39.4165 134.6092 157° South  Level FlightAware Approximate
Mon 11:00:00 PM 39.2774 134.6855 157° South  Level FlightAware Approximate
Mon 11:01:00 PM 39.1382 134.7615 157° South  Level FlightAware Approximate
Mon 11:02:00 PM 38.9990 134.8372 157° South  Level FlightAware Approximate
Mon 11:03:00 PM 38.8597 134.9126 157° South  Level FlightAware Approximate
Mon 11:04:00 PM 38.7203 134.9877 157° South  Level FlightAware Approximate
Mon 11:05:00 PM 38.5810 135.0625 157° South  Level FlightAware Approximate
Mon 11:06:00 PM 38.4415 135.1370 157° South  Level FlightAware Approximate
Mon 11:07:00 PM 38.3021 135.2112 157° South  Level FlightAware Approximate
Mon 11:08:00 PM 38.1625 135.2852 157° South  Level FlightAware Approximate
Mon 11:09:00 PM 38.0229 135.3589 157° South  Level FlightAware Approximate
Mon 11:10:00 PM 37.8833 135.4322 157° South  Level FlightAware Approximate
Mon 11:11:00 PM 37.7437 135.5053 158° South  Level FlightAware Approximate
Mon 11:12:00 PM 37.6040 135.5782 158° South  Level FlightAware Approximate
Mon 11:13:00 PM 37.4642 135.6507 158° South  Level FlightAware Approximate
Mon 11:14:00 PM 37.3244 135.7230 158° South  Level FlightAware Approximate
Mon 11:15:00 PM 37.1846 135.7950 158° South  Level FlightAware Approximate
Mon 11:16:00 PM 37.0447 135.8668 158° South  Level FlightAware Approximate
Mon 11:17:00 PM 36.9048 135.9383 158° South  Level FlightAware Approximate
Mon 11:18:00 PM 36.7648 136.0095 158° South  Level FlightAware Approximate
Mon 11:19:00 PM 36.6248 136.0804 158° South  Level FlightAware Approximate
Mon 11:20:00 PM 36.4847 136.1512 158° South  Level FlightAware Approximate
Mon 11:21:00 PM 36.3446 136.2216 158° South  Level FlightAware Approximate
Mon 11:22:00 PM 36.2045 136.2918 158° South  Level FlightAware Approximate
Mon 11:23:00 PM 36.0643 136.3618 158° South  Level FlightAware Approximate
Mon 11:24:00 PM 35.9241 136.4315 158° South  Level FlightAware Approximate
Mon 11:25:00 PM 35.7838 136.5009 158° South  Level FlightAware Approximate
Mon 11:26:00 PM 35.6435 136.5701 158° South  Level FlightAware Approximate
Mon 11:27:00 PM 35.5027 136.6375 159° South  Level FlightAware Approximate
Mon 11:28:00 PM 35.3617 136.7043 159° South  Level FlightAware Approximate
Mon 11:29:00 PM 35.2207 136.7708 159° South  Level FlightAware Approximate
Mon 11:30:00 PM 35.0796 136.8372 159° South  Level FlightAware Approximate
Mon 11:31:00 PM 34.9380 136.9017 160° South  Level FlightAware Approximate
Mon 11:32:00 PM 34.8900 136.8462 288° West  Level FlightAware Approximate
Mon 11:33:00 PM 34.9372 136.6711 291° West  Level FlightAware Approximate
Mon 11:34:00 PM 34.9909 136.4987 291° West  Level FlightAware Approximate
Mon 11:35:00 PM 35.0444 136.3262 291° West  Level FlightAware Approximate
Mon 11:36:00 PM 35.0987 136.1538 292° West  Level FlightAware Approximate
Mon 11:37:00 PM 35.1523 135.9811 290° West  Level FlightAware Approximate
Mon 11:38:00 PM 35.2040 135.8073 290° West  Level FlightAware Approximate
Mon 11:39:00 PM 35.2555 135.6334 290° West  Level FlightAware Approximate
Mon 11:40:00 PM 35.3068 135.4592 290° West  Level FlightAware Approximate
Mon 11:41:00 PM 35.3578 135.2848 290° West  Level FlightAware Approximate
Mon 11:42:00 PM 35.4085 135.1102 290° West  Level FlightAware Approximate
Mon 11:43:00 PM 35.4580 134.9350 287° West  Level FlightAware Approximate
Mon 11:44:00 PM 35.5025 134.7576 287° West  Level FlightAware Approximate
Mon 11:45:00 PM 35.5467 134.5800 287° West  Level FlightAware Approximate
Mon 11:46:00 PM 35.5956 134.4043 289° West  Level FlightAware Approximate
Mon 11:47:00 PM 35.6447 134.2284 289° West  Level FlightAware Approximate
Mon 11:48:00 PM 35.6936 134.0524 289° West  Level FlightAware Approximate
Mon 11:49:00 PM 35.7422 133.8761 289° West  Level FlightAware Approximate
Mon 11:50:00 PM 35.7905 133.6996 289° West  Level FlightAware Approximate
Mon 11:51:00 PM 35.8386 133.5229 289° West  Level FlightAware Approximate
Mon 11:52:00 PM 35.8864 133.3460 288° West  Level FlightAware Approximate
Mon 11:53:00 PM 35.9340 133.1689 288° West  Level FlightAware Approximate
Mon 11:54:00 PM 35.9813 132.9916 288° West  Level FlightAware Approximate
Mon 11:55:00 PM 36.0283 132.8141 288° West  Level FlightAware Approximate
Mon 11:56:00 PM 36.0751 132.6363 288° West  Level FlightAware Approximate
Mon 11:57:00 PM 36.1216 132.4583 288° West  Level FlightAware Approximate
Mon 11:58:00 PM 36.1679 132.2802 288° West  Level FlightAware Approximate
Mon 11:59:00 PM 36.2138 132.1018 288° West  Level FlightAware Approximate
Tue 12:00:00 AM 36.2596 131.9232 288° West  Level FlightAware Approximate
Tue 12:01:00 AM 36.3050 131.7444 288° West  Level FlightAware Approximate
Tue 12:02:00 AM 36.3502 131.5654 287° West  Level FlightAware Approximate
Tue 12:03:00 AM 36.3952 131.3862 287° West  Level FlightAware Approximate
Tue 12:04:00 AM 36.4400 131.2068 287° West  Level FlightAware Approximate
Tue 12:05:00 AM 36.4846 131.0273 287° West  Level FlightAware Approximate
Tue 12:06:00 AM 36.5289 130.8475 287° West  Level FlightAware Approximate
Tue 12:07:00 AM 36.5729 130.6675 287° West  Level FlightAware Approximate
Tue 12:08:00 AM 36.6167 130.4873 287° West  Level FlightAware Approximate
Tue 12:09:00 AM 36.6601 130.3074 287° West  Level FlightAware Approximate
Tue 12:10:00 AM 36.7032 130.1272 287° West  Level FlightAware Approximate
Tue 12:11:00 AM 36.7460 129.9469 287° West  Level FlightAware Approximate
Tue 12:12:00 AM 36.7886 129.7663 286° West  Level FlightAware Approximate
Tue 12:13:00 AM 36.8310 129.5854 286° West  Level FlightAware Approximate
Tue 12:14:00 AM 36.8730 129.4042 286° West  Level FlightAware Approximate
Tue 12:15:00 AM 36.9148 129.2228 286° West  Level FlightAware Approximate
Tue 12:16:00 AM 36.9563 129.0412 286° West  Level FlightAware Approximate
Tue 12:17:00 AM 36.9976 128.8595 286° West  Level FlightAware Approximate
Tue 12:18:00 AM 37.0386 128.6775 286° West  Level FlightAware Approximate
Tue 12:19:00 AM 37.0793 128.4954 286° West  Level FlightAware Approximate
Tue 12:20:00 AM 37.1197 128.3130 286° West  Level FlightAware Approximate
Tue 12:21:00 AM 37.1598 128.1305 285° West  Level FlightAware Approximate
Tue 12:22:00 AM 37.1996 127.9477 285° West  Level FlightAware Approximate
Tue 12:23:00 AM 37.2392 127.7648 285° West  Level FlightAware Approximate
Tue 12:24:00 AM 37.2785 127.5817 285° West  Level FlightAware Approximate
Tue 12:25:00 AM 37.3175 127.3984 285° West  Level FlightAware Approximate
Tue 12:26:00 AM 37.3562 127.2149 285° West  Level FlightAware Approximate
Tue 12:27:00 AM 37.3947 127.0312 285° West  Level FlightAware Approximate
Tue 12:28:00 AM 37.4328 126.8473 285° West  Level FlightAware Approximate
Tue 12:29:00 AM 37.4707 126.6632 285° West  Level FlightAware Approximate
Tue 12:30:00 AM 37.5083 126.4790 284° West  Level FlightAware Approximate
Tue 12:31:00 AM 37.5456 126.2945 284° West  Level FlightAware Approximate
Tue 12:32:00 AM 37.5826 126.1099 284° West  Level FlightAware Approximate
Tue 12:33:00 AM 37.6193 125.9251 284° West  Level FlightAware Approximate
Tue 12:33:37 AM 33.7930 123.4840 284° West 486 559 37,100  Level FlightAware ADS-B
Tue 12:34:00 AM 37.6557 125.7401 284° West  Level FlightAware Approximate
Tue 12:34:17 AM 33.7080 123.4850 179° South 486 559 37,100  Level FlightAware ADS-B
Tue 12:34:57 AM 33.6180 123.4860 179° South 486 559 37,100  Level FlightAware ADS-B
Tue 12:35:37 AM 33.5420 123.4870 179° South 486 559 37,100  Level FlightAware ADS-B
Tue 12:36:27 AM 33.3990 123.4860 180° South 501 577 37,100  Level FlightAware ADS-B
Tue 12:37:07 AM 33.3060 123.4860 180° South 502 578 37,100  Level FlightAware ADS-B
Tue 12:37:47 AM 33.2140 123.4870 179° South 495 570 37,100  Level FlightAware ADS-B
Tue 12:38:32 AM 33.1140 123.4870 180° South 496 571 37,100  Level FlightAware ADS-B
Tue 12:39:07 AM 33.0420 123.4880 179° South 496 571 37,100 -635 Level FlightAware ADS-B
Tue 12:39:57 AM 32.9110 123.4880 180° South 502 578 36,200 -1,067 Descending FlightAware ADS-B
Tue 12:40:37 AM 32.8220 123.4880 180° South 501 577 35,500 -1,125 Descending FlightAware ADS-B
Tue 12:41:17 AM 32.7250 123.4880 180° South 498 573 34,700 -733 Descending FlightAware ADS-B
Tue 12:42:07 AM 32.6210 123.4900 179° South 495 570 34,400 -960 Descending FlightAware ADS-B
Tue 12:42:57 AM 32.4970 123.4890 180° South 481 554 33,100 -884 Descending FlightAware ADS-B
Tue 12:43:42 AM 32.3960 123.4890 180° South 480 552 33,000 -71 Descending FlightAware ADS-B
Tue 12:44:22 AM 32.3040 123.4900 179° South 480 552 33,000  Level FlightAware ADS-B
Tue 12:45:02 AM 32.2140 123.4900 180° South 480 552 33,000  Level FlightAware ADS-B
Tue 12:45:47 AM 32.1160 123.4900 180° South 481 554 33,000  Level FlightAware ADS-B
Tue 12:46:42 AM 31.9980 123.4920 179° South 481 554 33,000  Level FlightAware ADS-B
Tue 12:47:22 AM 31.9010 123.4920 180° South 482 555 33,000  Level FlightAware ADS-B
Tue 12:48:02 AM 31.8250 123.4940 179° South 482 555 33,000  Level FlightAware ADS-B
Tue 12:48:42 AM 31.7500 123.4950 179° South 482 555 33,000  Level FlightAware ADS-B
Tue 12:49:22 AM 31.6740 123.4970 179° South 482 555 33,000  Level FlightAware ADS-B
Tue 12:50:12 AM 31.5790 123.4990 179° South 482 555 33,000  Level FlightAware ADS-B
Tue 12:50:52 AM 31.5030 123.5000 179° South 482 555 33,000 -1,522 Level FlightAware ADS-B
Tue 12:51:27 AM 31.4680 123.3330 256° West 28,000 -1,628 Descending FlightAware ADS-B
Tue 12:54:00 AM 31.3730 122.8964 258° West  Level FlightAware Approximate
Tue 12:55:00 AM 31.3414 122.7236 257° West  Level FlightAware Approximate
Tue 12:56:00 AM 31.3093 122.5509 258° West  Level FlightAware Approximate
Tue 12:57:00 AM 31.2684 122.3811 253° West  Level FlightAware Approximate
Tue 12:58:00 AM 31.2333 122.2108 270° West  Level FlightAware Approximate
Tue 12:59:00 AM 31.1956 122.0403 259° West  Level FlightAware Approximate
Tue 01:00:00 AM 31.1485 121.8741 259° West  Level FlightAware Approximate
Tue 01:00:27 AM 31.5720 122.4910 259° West 345 397 17,400  Level FlightAware ADS-B
Tue 01:00:52 AM 31.5850 122.5340 70° East 343 395 16,900 -1,418 Descending FlightAware ADS-B
Tue 01:01:22 AM 31.5680 122.5870 111° Southeast 335 386 16,100 -720 Descending FlightAware ADS-B
Tue 01:02:07 AM 31.5290 122.6370 132° Southeast 333 383 16,000 -1,482 Descending FlightAware ADS-B
Tue 01:02:47 AM 31.4620 122.5660 222° Southwest 333 383 14,000 -1,886 Descending FlightAware ADS-B
Tue 01:03:17 AM 31.4280 122.5280 224° Southwest 313 360 13,800 -185 Descending FlightAware ADS-B
Tue 01:03:52 AM 31.3940 122.4920 222° Southwest 313 360 13,800 -505 Level FlightAware ADS-B
Tue 01:04:52 AM 31.3310 122.4210 224° Southwest 313 360 13,000 -480 Descending FlightAware ADS-B
Tue 01:05:32 AM 31.2950 122.3820 223° Southwest 313 360 13,000  Level FlightAware ADS-B
Tue 01:06:12 AM 31.2590 122.3420 224° Southwest 313 360 13,000 -2,836 Level FlightAware ADS-B
Tue 01:06:27 AM 31.3070 122.2660 306° West 295 339 10,400 -2,600 Descending FlightAware ADS-B
Tue 01:07:12 AM 31.2940 122.2040 256° West 295 339 10,400  Level FlightAware ADS-B
Tue 01:07:52 AM 31.2830 122.1510 256° West 295 339 10,400 -1,964 Level FlightAware ADS-B
Tue 01:09:02 AM 31.2590 122.0180 258° West 288 331 6,800 -2,274 Descending FlightAware ADS-B
Tue 01:09:27 AM 31.2530 121.9830 259° West 288 331 6,800 -1,371 Level FlightAware ADS-B
Tue 01:10:12 AM 31.2640 121.9150 281° West 288 331 5,200 -1,371 Descending FlightAware ADS-B
Tue 01:10:37 AM 31.2580 121.8800 259° West 288 331 5,200 -1,059 Level FlightAware ADS-B
Tue 01:11:03 AM 31.3210 121.8960 12° North 293 337 4,300 -1,200 Descending FlightAware ADS-B
Tue 01:11:37 AM 31.3580 121.9120 20° North 227 261 4,000 -469 Descending FlightAware ADS-B
Tue 01:12:07 AM 31.3880 121.9240 19° North 198 228 3,800 -500 Descending FlightAware ADS-B
Tue 01:12:37 AM 31.4110 121.9130 338° Northwest 199 229 3,500 -750 Descending FlightAware ADS-B
Tue 01:12:47 AM 31.4160 121.9030 300° West 200 230 3,300 -960 Descending FlightAware ADS-B
Tue 01:13:02 AM 31.4170 121.8900 275° West 202 232 3,100 -1,371 Descending FlightAware ADS-B
Tue 01:13:22 AM 31.4160 121.8650 267° West 201 231 2,500 -1,091 Descending FlightAware ADS-B
Tue 01:13:57 AM 31.4160 121.8310 270° West 195 224 2,100 -554 Descending FlightAware ADS-B
Tue 01:14:27 AM 31.4150 121.7960 268° West 193 222 1,900 -200 Descending FlightAware ADS-B
Tue 01:14:57 AM 31.4140 121.7650 268° West 193 222 1,900  Level FlightAware ADS-B
Tue 01:15:07 AM 31.4140 121.7590 270° West 193 222 1,900  Level FlightAware ADS-B
Tue 01:15:22 AM 31.4070 121.7420 244° Southwest 176 203 1,900  Level FlightAware ADS-B
Tue 01:15:37 AM 31.3970 121.7360 207° Southwest 172 198 1,900  Level FlightAware ADS-B
Tue 01:15:57 AM 31.3790 121.7310 193° South 180 207 1,900  Level FlightAware ADS-B
Tue 01:16:17 AM 31.3640 121.7340 170° South 167 192 1,900  Level FlightAware ADS-B
Tue 01:16:42 AM 31.3450 121.7410 163° South 174 200 1,900  Level FlightAware ADS-B
Tue 01:17:17 AM 31.3190 121.7510 162° South 174 200 1,900  Level FlightAware ADS-B
Tue 01:17:57 AM 31.2900 121.7620 162° South 174 200 1,900  Level FlightAware ADS-B
Tue 01:18:27 AM 31.2640 121.7720 162° South 168 193 1,900 -327 Level FlightAware ADS-B
Tue 01:18:52 AM 31.2460 121.7790 162° South 169 194 1,600 -764 Descending FlightAware ADS-B
Tue 01:19:22 AM 31.2250 121.7870 162° South 151 174 1,200 -400 Descending FlightAware ADS-B
Tue 01:19:52 AM 31.2090 121.7930 162° South 135 155 1,200 -600 Level FlightAware ADS-B
Tue 01:20:32 AM 31.1850 121.8020 162° South 123 142 500 -982 Descending FlightAware ADS-B
Tue 01:20:47 AM 31.1750 121.8060 161° South 123 142 300 -300 Descending FlightAware ADS-B
Tue 01:21:12 AM 31.1630 121.8110 160° South 123 142 300  Level FlightAware ADS-B
Tue 01:23:00 AM 31.1428 121.7924 259° West  Level Estimated
Tue 01:24:00 AM 31.1428 121.7924 259° West  Level Estimated
Tue 01:25:00 AM 31.1428 121.7924 259° West  Level Estimated
Tue 01:26:00 AM 31.1428 121.7924 259° West  Level Estimated
Tue 01:27:00 AM 31.1428 121.7924 259° West  Level Estimated

Login

Don't have an account? Register now (free) for customized features, flight alerts, and more!